createdAt,value
2023-03-10T00:00:17.324Z,2.52
2023-03-10T00:03:03.042Z,2.53
2023-03-10T00:05:48.415Z,2.53
2023-03-10T00:08:33.764Z,2.56
2023-03-10T00:11:19.439Z,2.64
2023-03-10T00:14:04.700Z,2.68
2023-03-10T00:16:50.250Z,2.64
2023-03-10T00:19:35.477Z,2.63
2023-03-10T00:22:21.079Z,2.66
2023-03-10T00:25:07.710Z,2.65
2023-03-10T00:27:52.772Z,2.63
2023-03-10T00:30:38.295Z,2.55
2023-03-10T00:33:23.238Z,2.48
2023-03-10T00:36:21.365Z,2.40
2023-03-10T00:39:08.923Z,2.33
2023-03-10T00:41:55.168Z,2.30
2023-03-10T00:44:41.773Z,2.32
2023-03-10T00:47:27.205Z,2.35
2023-03-10T00:50:13.409Z,2.38
2023-03-10T00:53:00.929Z,2.29
2023-03-10T00:55:58.141Z,2.30
2023-03-10T00:58:43.698Z,2.29
2023-03-10T01:01:37.417Z,2.31
2023-03-10T01:04:22.624Z,2.28
2023-03-10T01:07:07.783Z,2.26
2023-03-10T01:09:53.001Z,2.24
2023-03-10T01:12:38.860Z,2.16
2023-03-10T01:15:24.479Z,2.13
2023-03-10T01:18:09.647Z,2.08
2023-03-10T01:20:54.866Z,2.13
2023-03-10T01:23:40.130Z,2.17
2023-03-10T01:26:25.460Z,2.13
2023-03-10T01:29:10.731Z,2.04
2023-03-10T01:31:56.117Z,1.98
2023-03-10T01:34:41.641Z,1.97
2023-03-10T01:37:27.054Z,2.01
2023-03-10T01:40:18.563Z,2.05
2023-03-10T01:43:18.999Z,2.13
2023-03-10T01:46:04.237Z,2.17
2023-03-10T01:48:51.395Z,2.12
2023-03-10T01:51:38.840Z,2.09
2023-03-10T01:54:33.849Z,2.07
2023-03-10T01:57:22.049Z,2.07
2023-03-10T02:00:16.079Z,2.08
2023-03-10T02:03:07.714Z,2.14
2023-03-10T02:06:03.724Z,2.17
2023-03-10T02:08:57.890Z,2.17
2023-03-10T02:11:45.707Z,2.14
2023-03-10T02:14:32.447Z,2.09
2023-03-10T02:17:21.178Z,2.02
2023-03-10T02:20:21.608Z,2.11
2023-03-10T02:23:10.052Z,2.04
2023-03-10T02:26:04.182Z,2.02
2023-03-10T02:28:50.875Z,1.97
2023-03-10T02:31:36.497Z,2.02
2023-03-10T02:34:23.473Z,2.05
2023-03-10T02:37:22.064Z,2.14
2023-03-10T02:40:33.632Z,2.05
2023-03-10T02:43:24.782Z,1.95
2023-03-10T02:46:15.170Z,1.99
2023-03-10T02:49:06.069Z,2.03
2023-03-10T02:51:59.224Z,1.98
2023-03-10T02:54:45.110Z,1.92
2023-03-10T02:57:30.499Z,1.90
2023-03-10T03:00:16.205Z,1.95
2023-03-10T03:03:01.683Z,1.93
2023-03-10T03:05:47.894Z,1.99
2023-03-10T03:08:33.382Z,2.07
2023-03-10T03:11:20.496Z,2.07
2023-03-10T03:14:06.211Z,2.05
2023-03-10T03:16:51.521Z,2.05
2023-03-10T03:19:37.267Z,2.03
2023-03-10T03:22:22.892Z,2.08
2023-03-10T03:25:09.940Z,2.09
2023-03-10T03:27:55.205Z,2.00
2023-03-10T03:30:41.010Z,1.97
2023-03-10T03:33:26.497Z,1.97
2023-03-10T03:36:13.040Z,1.93
2023-03-10T03:38:58.295Z,1.90
2023-03-10T03:41:46.552Z,1.97
2023-03-10T03:44:32.072Z,1.88
2023-03-10T03:47:18.393Z,1.85
2023-03-10T03:50:04.439Z,1.96
2023-03-10T03:52:50.037Z,1.87
2023-03-10T03:55:37.868Z,1.84
2023-03-10T03:58:25.332Z,1.92
2023-03-10T04:01:10.769Z,1.92
2023-03-10T04:04:01.428Z,1.86
2023-03-10T04:06:46.657Z,1.85
2023-03-10T04:09:32.257Z,1.84
2023-03-10T04:12:17.852Z,1.76
2023-03-10T04:15:08.207Z,1.74
2023-03-10T04:17:53.929Z,1.70
2023-03-10T04:20:39.089Z,1.75
2023-03-10T04:23:24.563Z,1.77
2023-03-10T04:26:10.812Z,1.77
2023-03-10T04:28:59.079Z,1.79
2023-03-10T04:31:59.107Z,1.83
2023-03-10T04:34:50.815Z,1.94
2023-03-10T04:37:36.495Z,1.99
2023-03-10T04:40:21.827Z,1.98
2023-03-10T04:43:07.341Z,1.93
2023-03-10T04:45:53.246Z,1.97
2023-03-10T04:48:39.688Z,2.04
2023-03-10T04:51:24.823Z,2.00
2023-03-10T04:54:12.304Z,2.01
2023-03-10T04:56:58.644Z,2.04
2023-03-10T04:59:44.891Z,1.96
2023-03-10T05:02:32.357Z,2.00
2023-03-10T05:05:20.127Z,2.06
2023-03-10T05:08:07.262Z,2.14
2023-03-10T05:10:52.769Z,2.13
2023-03-10T05:13:39.278Z,2.08
2023-03-10T05:16:25.240Z,2.08
2023-03-10T05:19:11.866Z,2.06
2023-03-10T05:21:57.375Z,2.07
2023-03-10T05:24:43.691Z,2.14
2023-03-10T05:27:29.573Z,2.18
2023-03-10T05:30:16.032Z,2.19
2023-03-10T05:33:04.072Z,2.23
2023-03-10T05:35:49.955Z,2.25
2023-03-10T05:38:36.670Z,2.28
2023-03-10T05:41:23.744Z,2.29
2023-03-10T05:44:13.254Z,2.28
2023-03-10T05:46:59.308Z,2.17
2023-03-10T05:49:45.113Z,2.15
2023-03-10T05:52:30.330Z,2.15
2023-03-10T05:55:18.395Z,2.23
2023-03-10T05:58:04.049Z,2.25
2023-03-10T06:00:49.777Z,2.19
2023-03-10T06:03:35.427Z,2.21
2023-03-10T06:06:20.928Z,2.27
2023-03-10T06:09:07.112Z,2.35
2023-03-10T06:11:52.533Z,2.43
2023-03-10T06:14:38.593Z,2.47
2023-03-10T06:17:23.798Z,2.51
2023-03-10T06:20:09.992Z,2.59
2023-03-10T06:22:55.410Z,2.63
2023-03-10T06:25:41.239Z,2.71
2023-03-10T06:28:32.710Z,2.71
2023-03-10T06:31:21.665Z,2.68
2023-03-10T06:34:07.802Z,2.66
2023-03-10T06:36:55.273Z,2.68
2023-03-10T06:39:41.143Z,2.73
2023-03-10T06:42:26.579Z,2.69
2023-03-10T06:45:16.746Z,2.75
2023-03-10T06:48:01.935Z,2.74
2023-03-10T06:50:54.390Z,2.81
2023-03-10T06:53:40.195Z,2.80
2023-03-10T06:56:25.496Z,2.81
2023-03-10T06:59:10.631Z,2.83
2023-03-10T07:01:55.942Z,2.87
2023-03-10T07:04:41.585Z,2.85
2023-03-10T07:07:26.825Z,2.87
2023-03-10T07:10:12.238Z,2.94
2023-03-10T07:12:58.885Z,3.07
2023-03-10T07:15:45.733Z,3.16
2023-03-10T07:18:31.253Z,3.21
2023-03-10T07:21:19.761Z,3.27
2023-03-10T07:24:05.977Z,3.33
2023-03-10T07:26:51.485Z,3.36
2023-03-10T07:29:36.691Z,3.43
2023-03-10T07:32:22.081Z,3.48
2023-03-10T07:35:08.121Z,3.49
2023-03-10T07:37:53.647Z,3.51
2023-03-10T07:40:42.153Z,3.53
2023-03-10T07:43:27.592Z,3.50
2023-03-10T07:46:14.890Z,3.60
2023-03-10T07:49:04.064Z,3.61
2023-03-10T07:51:49.457Z,3.57
2023-03-10T07:54:35.065Z,3.49
2023-03-10T07:57:20.558Z,3.56
2023-03-10T08:00:07.116Z,3.70
2023-03-10T08:02:56.926Z,3.74
2023-03-10T08:05:42.722Z,3.69
2023-03-10T08:08:29.784Z,3.78
2023-03-10T08:11:15.341Z,3.93
2023-03-10T08:14:00.815Z,4.08
2023-03-10T08:16:45.879Z,4.31
2023-03-10T08:19:31.118Z,4.50
2023-03-10T08:22:16.945Z,4.69
2023-03-10T08:25:02.132Z,4.78
2023-03-10T08:27:50.433Z,4.70
2023-03-10T08:30:35.559Z,4.59
2023-03-10T08:33:21.955Z,4.58
2023-03-10T08:36:11.121Z,4.58
2023-03-10T08:38:59.000Z,4.64
2023-03-10T08:41:49.002Z,4.78
2023-03-10T08:44:34.701Z,4.92
2023-03-10T08:47:23.480Z,4.95
2023-03-10T08:50:09.434Z,4.98
2023-03-10T08:52:54.937Z,5.17
2023-03-10T08:55:40.159Z,5.41
2023-03-10T08:58:25.857Z,5.56
2023-03-10T09:01:16.616Z,5.64
2023-03-10T09:04:04.019Z,5.72
2023-03-10T09:06:49.261Z,5.74
2023-03-10T09:09:38.113Z,5.79
2023-03-10T09:12:23.374Z,5.85
2023-03-10T09:15:09.053Z,5.75
2023-03-10T09:17:55.562Z,5.65
2023-03-10T09:20:42.244Z,5.63
2023-03-10T09:23:28.366Z,5.86
2023-03-10T09:26:14.573Z,6.06
2023-03-10T09:29:00.174Z,6.21
2023-03-10T09:31:47.671Z,6.40
2023-03-10T09:34:33.242Z,6.53
2023-03-10T09:37:18.492Z,6.69
2023-03-10T09:40:06.393Z,6.93
2023-03-10T09:43:03.818Z,7.04
2023-03-10T09:45:57.603Z,7.23
2023-03-10T09:48:57.922Z,7.42
2023-03-10T09:51:47.957Z,7.57
2023-03-10T09:54:56.333Z,7.64
2023-03-10T09:57:41.560Z,7.63
2023-03-10T10:00:34.821Z,7.61
2023-03-10T10:03:42.987Z,7.59
2023-03-10T10:06:42.230Z,7.64
2023-03-10T10:09:43.225Z,7.81
2023-03-10T10:12:28.566Z,7.92
2023-03-10T10:15:17.812Z,7.96
2023-03-10T10:18:24.968Z,8.01
2023-03-10T10:21:26.026Z,7.87
2023-03-10T10:24:14.161Z,7.86
2023-03-10T10:26:59.665Z,7.95
2023-03-10T10:29:47.066Z,8.02
2023-03-10T10:32:32.292Z,7.89
2023-03-10T10:35:24.829Z,7.71
2023-03-10T10:38:10.029Z,7.81
2023-03-10T10:41:09.940Z,7.76
2023-03-10T10:43:58.748Z,7.74
2023-03-10T10:46:52.501Z,7.75
2023-03-10T10:49:38.165Z,7.83
2023-03-10T10:52:25.446Z,7.89
2023-03-10T10:55:22.369Z,7.98
2023-03-10T10:58:31.090Z,8.09
2023-03-10T11:01:17.062Z,8.01
2023-03-10T11:04:08.059Z,7.97
2023-03-10T11:07:08.671Z,7.93
2023-03-10T11:09:58.036Z,7.89
2023-03-10T11:13:02.580Z,7.73
2023-03-10T11:16:00.557Z,7.66
2023-03-10T11:18:57.804Z,7.63
2023-03-10T11:21:48.320Z,7.52
2023-03-10T11:24:45.827Z,7.57
2023-03-10T11:27:46.203Z,7.60
2023-03-10T11:30:34.415Z,7.74
2023-03-10T11:33:42.643Z,7.96
2023-03-10T11:36:55.508Z,8.18
2023-03-10T11:40:30.815Z,8.25
2023-03-10T11:43:56.868Z,8.15
2023-03-10T11:46:54.434Z,8.10
2023-03-10T11:49:43.600Z,8.10
2023-03-10T11:52:32.433Z,8.03
2023-03-10T11:55:20.885Z,8.01
2023-03-10T11:58:21.305Z,8.10
2023-03-10T12:01:11.853Z,8.11
2023-03-10T12:04:22.860Z,8.27
2023-03-10T12:07:20.557Z,8.43
2023-03-10T12:10:12.702Z,8.46
2023-03-10T12:13:02.004Z,8.45
2023-03-10T12:15:48.398Z,8.35
2023-03-10T12:18:34.219Z,8.35
2023-03-10T12:21:28.256Z,8.43
2023-03-10T12:24:43.284Z,8.56
2023-03-10T12:27:28.713Z,8.49
2023-03-10T12:30:45.861Z,8.45
2023-03-10T12:33:33.284Z,8.41
2023-03-10T12:36:22.230Z,8.33
2023-03-10T12:39:48.150Z,8.29
2023-03-10T12:42:35.217Z,8.15
2023-03-10T12:45:31.928Z,8.17
2023-03-10T12:48:20.047Z,8.33
2023-03-10T12:51:13.680Z,8.45
2023-03-10T12:54:06.542Z,8.57
2023-03-10T12:57:17.777Z,8.68
2023-03-10T13:00:13.712Z,8.62
2023-03-10T13:03:11.107Z,8.68
2023-03-10T13:05:59.562Z,8.65
2023-03-10T13:08:46.342Z,8.69
2023-03-10T13:11:37.994Z,8.78
2023-03-10T13:14:33.575Z,8.71
2023-03-10T13:17:28.526Z,8.65
2023-03-10T13:20:19.310Z,8.63
2023-03-10T13:23:04.755Z,8.56
2023-03-10T13:26:16.800Z,8.48
2023-03-10T13:29:03.668Z,8.48
2023-03-10T13:31:54.069Z,8.49
2023-03-10T13:34:39.385Z,8.41
2023-03-10T13:37:24.977Z,8.07
2023-03-10T13:40:14.988Z,7.83
2023-03-10T13:43:00.553Z,7.78
2023-03-10T13:45:45.708Z,7.80
2023-03-10T13:48:32.447Z,7.82
2023-03-10T13:51:32.453Z,7.92
2023-03-10T13:54:20.402Z,8.02
2023-03-10T13:57:31.321Z,8.16
2023-03-10T14:00:19.481Z,8.00
2023-03-10T14:03:07.910Z,7.91
2023-03-10T14:05:53.920Z,7.89
2023-03-10T14:08:39.091Z,7.67
2023-03-10T14:11:40.929Z,7.46
2023-03-10T14:14:38.595Z,7.35
2023-03-10T14:17:34.983Z,7.25
2023-03-10T14:20:39.016Z,7.07
2023-03-10T14:23:26.997Z,7.01
2023-03-10T14:26:16.753Z,6.95
2023-03-10T14:29:03.710Z,7.07
2023-03-10T14:31:52.384Z,7.28
2023-03-10T14:34:37.867Z,7.43
2023-03-10T14:37:23.915Z,7.42
2023-03-10T14:40:10.782Z,7.23
2023-03-10T14:43:00.979Z,7.07
2023-03-10T14:45:47.791Z,6.75
2023-03-10T14:48:35.853Z,6.59
2023-03-10T14:51:34.363Z,6.41
2023-03-10T14:54:25.840Z,6.30
2023-03-10T14:57:13.525Z,6.27
2023-03-10T14:59:58.889Z,6.21
2023-03-10T15:02:45.570Z,6.09
2023-03-10T15:05:46.938Z,6.03
2023-03-10T15:08:33.269Z,5.99
2023-03-10T15:11:30.248Z,6.05
2023-03-10T15:14:21.138Z,6.07
2023-03-10T15:17:06.238Z,6.04
2023-03-10T15:19:51.783Z,6.06
2023-03-10T15:22:37.122Z,5.84
2023-03-10T15:25:22.571Z,5.65
2023-03-10T15:28:07.810Z,5.49
2023-03-10T15:30:54.645Z,5.34
2023-03-10T15:33:40.144Z,5.20
2023-03-10T15:36:25.467Z,5.10
2023-03-10T15:39:14.262Z,5.10
2023-03-10T15:42:04.380Z,5.13
2023-03-10T15:44:49.478Z,5.13
2023-03-10T15:47:34.964Z,5.28
2023-03-10T15:50:21.142Z,5.30
2023-03-10T15:53:06.268Z,5.37
2023-03-10T15:55:52.531Z,5.22
2023-03-10T15:58:37.991Z,4.95
2023-03-10T16:01:23.328Z,4.77
2023-03-10T16:04:08.849Z,4.60
2023-03-10T16:06:54.395Z,4.42
2023-03-10T16:09:39.770Z,4.23
2023-03-10T16:12:28.245Z,4.17
2023-03-10T16:15:16.939Z,4.11
2023-03-10T16:18:03.532Z,4.05
2023-03-10T16:20:56.710Z,4.01
2023-03-10T16:23:42.178Z,4.00
2023-03-10T16:26:27.797Z,3.99
2023-03-10T16:29:13.359Z,3.93
2023-03-10T16:31:58.998Z,4.03
2023-03-10T16:34:44.300Z,4.13
2023-03-10T16:37:29.942Z,4.17
2023-03-10T16:40:15.270Z,4.23
2023-03-10T16:43:00.468Z,4.24
2023-03-10T16:45:48.687Z,4.26
2023-03-10T16:48:34.700Z,4.28
2023-03-10T16:51:27.702Z,4.22
2023-03-10T16:54:16.628Z,4.15
2023-03-10T16:57:03.411Z,4.10
2023-03-10T16:59:48.948Z,4.08
2023-03-10T17:02:34.299Z,4.04
2023-03-10T17:05:19.889Z,3.92
2023-03-10T17:08:05.982Z,3.84
2023-03-10T17:10:51.390Z,3.72
2023-03-10T17:13:37.797Z,3.67
2023-03-10T17:16:28.155Z,3.67
2023-03-10T17:19:19.592Z,3.60
2023-03-10T17:22:05.034Z,3.66
2023-03-10T17:24:58.112Z,3.54
2023-03-10T17:27:43.842Z,3.48
2023-03-10T17:30:29.564Z,3.51
2023-03-10T17:33:15.005Z,3.56
2023-03-10T17:36:07.893Z,3.67
2023-03-10T17:38:58.517Z,3.67
2023-03-10T17:41:43.583Z,3.68
2023-03-10T17:44:29.117Z,3.71
2023-03-10T17:47:14.657Z,3.75
2023-03-10T17:50:02.048Z,3.59
2023-03-10T17:52:47.773Z,3.40
2023-03-10T17:55:35.383Z,3.28
2023-03-10T17:58:21.050Z,3.18
2023-03-10T18:01:14.211Z,3.08
2023-03-10T18:04:00.686Z,3.06
2023-03-10T18:06:46.232Z,3.02
2023-03-10T18:09:31.905Z,2.98
2023-03-10T18:12:17.458Z,2.86
2023-03-10T18:15:02.734Z,2.86
2023-03-10T18:17:47.885Z,2.84
2023-03-10T18:20:34.692Z,2.82
2023-03-10T18:23:23.296Z,2.82
2023-03-10T18:26:10.645Z,2.77
2023-03-10T18:28:56.583Z,2.77
2023-03-10T18:31:41.894Z,2.76
2023-03-10T18:34:27.072Z,2.76
2023-03-10T18:37:12.869Z,2.82
2023-03-10T18:39:59.326Z,2.89
2023-03-10T18:42:44.898Z,2.90
2023-03-10T18:45:30.061Z,2.93
2023-03-10T18:48:15.355Z,2.90
2023-03-10T18:51:01.046Z,2.88
2023-03-10T18:53:46.276Z,2.93
2023-03-10T18:56:31.597Z,2.89
2023-03-10T18:59:16.708Z,2.85
2023-03-10T19:02:02.084Z,2.88
2023-03-10T19:04:49.048Z,2.88
2023-03-10T19:07:36.445Z,2.89
2023-03-10T19:10:22.414Z,2.93
2023-03-10T19:13:07.931Z,2.89
2023-03-10T19:15:53.983Z,2.86
2023-03-10T19:18:40.207Z,2.90
2023-03-10T19:21:25.373Z,2.97
2023-03-10T19:24:11.104Z,2.95
2023-03-10T19:26:56.588Z,2.98
2023-03-10T19:29:41.693Z,2.95
2023-03-10T19:32:28.029Z,2.90
2023-03-10T19:35:15.069Z,2.94
2023-03-10T19:38:00.452Z,2.97
2023-03-10T19:40:47.079Z,2.98
2023-03-10T19:43:32.890Z,2.96
2023-03-10T19:46:19.087Z,2.98
2023-03-10T19:49:06.543Z,2.96
2023-03-10T19:51:52.536Z,2.95
2023-03-10T19:54:38.096Z,2.97
2023-03-10T19:57:23.782Z,2.94
2023-03-10T20:00:13.623Z,2.91
2023-03-10T20:02:59.231Z,2.93
2023-03-10T20:05:47.102Z,3.04
2023-03-10T20:08:34.053Z,3.09
2023-03-10T20:11:19.835Z,3.08
2023-03-10T20:14:05.801Z,3.10
2023-03-10T20:16:51.477Z,3.17
2023-03-10T20:19:38.886Z,3.12
2023-03-10T20:22:24.364Z,3.12
2023-03-10T20:25:12.367Z,3.05
2023-03-10T20:27:57.930Z,3.03
2023-03-10T20:30:43.480Z,3.00
2023-03-10T20:33:29.143Z,3.06
2023-03-10T20:36:15.837Z,3.03
2023-03-10T20:39:01.847Z,2.97
2023-03-10T20:41:49.169Z,2.92
2023-03-10T20:44:34.839Z,2.91
2023-03-10T20:47:20.123Z,2.90
2023-03-10T20:50:07.475Z,2.91
2023-03-10T20:52:53.552Z,2.88
2023-03-10T20:55:41.896Z,2.85
2023-03-10T20:58:27.575Z,2.83
2023-03-10T21:01:18.545Z,2.81
2023-03-10T21:04:04.612Z,2.73
2023-03-10T21:06:49.663Z,2.68
2023-03-10T21:09:35.186Z,2.72
2023-03-10T21:12:21.348Z,2.70
2023-03-10T21:15:08.072Z,2.68
2023-03-10T21:17:53.187Z,2.64
2023-03-10T21:20:38.655Z,2.64
2023-03-10T21:23:24.134Z,2.68
2023-03-10T21:26:15.513Z,2.65
2023-03-10T21:29:00.883Z,2.65
2023-03-10T21:31:46.092Z,2.64
2023-03-10T21:34:31.776Z,2.68
2023-03-10T21:37:17.042Z,2.77
2023-03-10T21:40:05.140Z,2.77
2023-03-10T21:42:50.395Z,2.81
2023-03-10T21:45:37.318Z,2.80
2023-03-10T21:48:22.609Z,2.85
2023-03-10T21:51:09.656Z,2.92
2023-03-10T21:53:55.328Z,2.93
2023-03-10T21:56:40.893Z,2.92
2023-03-10T21:59:25.899Z,2.88
2023-03-10T22:02:24.287Z,2.92
2023-03-10T22:05:13.646Z,2.95
2023-03-10T22:07:59.418Z,2.92
2023-03-10T22:10:45.488Z,2.91
2023-03-10T22:13:30.771Z,2.86
2023-03-10T22:16:17.037Z,2.79
2023-03-10T22:19:02.240Z,2.73
2023-03-10T22:21:47.305Z,2.61
2023-03-10T22:24:33.178Z,2.60
2023-03-10T22:27:18.557Z,2.64
2023-03-10T22:30:04.469Z,2.59
2023-03-10T22:32:50.077Z,2.51
2023-03-10T22:35:36.010Z,2.51
2023-03-10T22:38:21.531Z,2.47
2023-03-10T22:41:11.104Z,2.45
2023-03-10T22:43:56.547Z,2.45
2023-03-10T22:46:46.454Z,2.42
2023-03-10T22:49:32.260Z,2.27
2023-03-10T22:52:17.579Z,2.17
2023-03-10T22:55:03.068Z,2.16
2023-03-10T22:57:48.335Z,2.00
2023-03-10T23:00:34.424Z,1.92
2023-03-10T23:03:19.755Z,1.86
2023-03-10T23:06:05.968Z,1.84
2023-03-10T23:08:51.896Z,1.93
2023-03-10T23:11:36.890Z,1.94
2023-03-10T23:14:22.444Z,2.00
2023-03-10T23:17:08.283Z,1.90
2023-03-10T23:19:55.935Z,1.78
2023-03-10T23:22:42.315Z,1.78
2023-03-10T23:25:27.564Z,1.78
2023-03-10T23:28:13.559Z,1.76
2023-03-10T23:31:00.334Z,1.88
2023-03-10T23:33:45.636Z,2.02
2023-03-10T23:36:32.295Z,1.83
2023-03-10T23:39:17.648Z,1.67
2023-03-10T23:42:02.965Z,1.55
2023-03-10T23:44:49.823Z,1.49
2023-03-10T23:47:35.476Z,1.47
2023-03-10T23:50:22.487Z,1.43
2023-03-10T23:53:09.396Z,1.39
2023-03-10T23:55:58.655Z,1.43
2023-03-10T23:58:43.769Z,1.43
